Time;durP1;ratioP1;P1;durP2;ratioP2;P2;SDS_P1;SDS_P2;PMS_P1;PMS_P2;Temp;Humidity;BMP_temperature;BMP_pressure;BME280_temperature;BME280_humidity;BME280_pressure;Samples;Min_cycle;Max_cycle;Signal;HPM_P1;HPM_P2
2023/09/03 00:00:40;;;;;;;;;;;;;;;;;;6318115;28;19919;-78
2023/09/03 00:03:41;;;;;;;;;;;;;;;;;;6307099;28;19923;-78
2023/09/03 00:06:41;;;;;;;;;;;;;;;;;;6307755;28;19920;-78
2023/09/03 00:09:41;;;;;;;;;;;;;;;;;;6311335;28;19967;-77
2023/09/03 00:12:41;;;;;;;;;;;;;;;;;;6304477;28;21540;-78
2023/09/03 00:15:41;;;;;;;;;;;;;;;;;;6301475;28;20404;-78
2023/09/03 00:18:41;;;;;;;;;;;;;;;;;;6304537;28;20018;-78
2023/09/03 00:21:41;;;;;;;;;;;;;;;;;;6307223;28;20009;-79
2023/09/03 00:24:41;;;;;;;;;;;;;;;;;;6307920;28;19970;-79
2023/09/03 00:27:41;;;;;;;;;;;;;;;;;;6305128;28;20003;-78
2023/09/03 00:30:42;;;;;;;;;;;;;;;;;;6313104;28;20007;-78
2023/09/03 00:33:42;;;;;;;;;;;;;;;;;;6285721;28;19912;-79
2023/09/03 00:36:42;;;;;;;;;;;;;;;;;;6313951;28;19920;-79
2023/09/03 00:39:42;;;;;;;;;;;;;;;;;;6309639;28;19920;-79
2023/09/03 00:42:42;;;;;;;;;;;;;;;;;;6307034;28;20396;-78
2023/09/03 00:45:42;;;;;;;;;;;;;;;;;;6301159;28;20290;-78
2023/09/03 00:48:42;;;;;;;;;;;;;;;;;;6305256;28;19912;-78
2023/09/03 00:51:42;;;;;;;;;;;;;;;;;;6304750;28;19928;-78
2023/09/03 00:54:43;;;;;;;;;;;;;;;;;;6305660;28;19916;-79
2023/09/03 00:57:43;;;;;;;;;;;;;;;;;;6304121;28;19912;-79
2023/09/03 01:00:43;;;;;;;;;;;;;;;;;;6301792;28;19917;-79
2023/09/03 01:03:43;;;;;;;;;;;;;;;;;;6305286;28;19982;-78
2023/09/03 01:06:43;;;;;;;;;;;;;;;;;;6304764;28;19920;-79
2023/09/03 01:09:44;;;;;;;;;;;;;;;;;;6306500;28;19965;-79
2023/09/03 01:12:44;;;;;;;;;;;;;;;;;;6307176;28;20354;-81
2023/09/03 01:15:44;;;;;;;;;;;;;;;;;;6299262;28;19912;-81
2023/09/03 01:18:44;;;;;;;;;;;;;;;;;;6303232;28;19921;-81
2023/09/03 01:21:45;;;;;;;;;;;;;;;;;;6304552;28;19923;-81
2023/09/03 01:24:45;;;;;;;;;;;;;;;;;;6304915;28;19917;-81
2023/09/03 01:27:45;;;;;;;;;;;;;;;;;;6302715;28;19912;-81
2023/09/03 01:30:45;;;;;;;;;;;;;;;;;;6323905;28;19912;-81
2023/09/03 01:33:45;;;;;;;;;;;;;;;;;;6304060;28;20013;-81
2023/09/03 01:36:45;;;;;;;;;;;;;;;;;;6304732;28;20277;-80
2023/09/03 01:39:45;;;;;;;;;;;;;;;;;;6301433;28;19912;-80
2023/09/03 01:42:45;;;;;;;;;;;;;;;;;;6303258;28;19920;-80
2023/09/03 01:45:45;;;;;;;;;;;;;;;;;;6298162;28;20371;-81
2023/09/03 01:48:46;;;;;;;;;;;;;;;;;;6306126;28;19992;-81
2023/09/03 01:51:46;;;;;;;;;;;;;;;;;;6303900;28;20263;-83
2023/09/03 01:54:47;;;;;;;;;;;;;;;;;;6304210;28;19948;-82
2023/09/03 01:57:49;;;;;;;;;;;;;;;;;;6302908;28;19919;-81
2023/09/03 02:00:49;;;;;;;;;;;;;;;;;;6301408;28;19920;-81
2023/09/03 02:03:49;;;;;;;;;;;;;;;;;;6318665;28;20492;-81
2023/09/03 02:06:50;;;;;;;;;;;;;;;;;;6302513;28;19973;-79
2023/09/03 02:09:50;;;;;;;;;;;;;;;;;;6301673;28;19916;-81
2023/09/03 02:12:50;;;;;;;;;;;;;;;;;;6316869;28;19927;-80
2023/09/03 02:15:50;;;;;;;;;;;;;;;;;;6302714;28;19916;-80
2023/09/03 02:18:50;;;;;;;;;;;;;;;;;;6300132;28;19920;-81
2023/09/03 02:21:50;;;;;;;;;;;;;;;;;;6304614;28;20007;-80
2023/09/03 02:24:51;;;;;;;;;;;;;;;;;;6307944;28;19920;-80
2023/09/03 02:27:51;;;;;;;;;;;;;;;;;;6310005;28;19948;-80
2023/09/03 02:30:51;;;;;;;;;;;;;;;;;;6304569;28;20006;-81
2023/09/03 02:33:51;;;;;;;;;;;;;;;;;;6317092;28;19930;-80
2023/09/03 02:36:51;;;;;;;;;;;;;;;;;;6316547;28;19962;-80
2023/09/03 02:39:52;;;;;;;;;;;;;;;;;;6308660;28;19966;-80
2023/09/03 02:42:52;;;;;;;;;;;;;;;;;;6311561;28;19924;-80
2023/09/03 02:45:52;;;;;;;;;;;;;;;;;;6314297;28;20464;-78
2023/09/03 02:48:52;;;;;;;;;;;;;;;;;;6304199;28;19919;-78
2023/09/03 02:51:53;;;;;;;;;;;;;;;;;;6304743;28;20400;-78
2023/09/03 02:54:53;;;;;;;;;;;;;;;;;;6305501;28;20003;-80
2023/09/03 02:57:53;;;;;;;;;;;;;;;;;;6305645;28;20339;-78
2023/09/03 03:00:53;;;;;;;;;;;;;;;;;;6303155;28;20318;-79
2023/09/03 03:03:54;;;;;;;;;;;;;;;;;;6301682;28;20369;-80
2023/09/03 03:06:54;;;;;;;;;;;;;;;;;;6302061;28;19959;-80
2023/09/03 03:09:54;;;;;;;;;;;;;;;;;;6302369;28;19916;-80
2023/09/03 03:12:55;;;;;;;;;;;;;;;;;;6314229;28;20330;-80
2023/09/03 03:15:55;;;;;;;;;;;;;;;;;;6304786;28;19918;-81
2023/09/03 03:18:55;;;;;;;;;;;;;;;;;;6302984;28;19920;-80
2023/09/03 03:21:55;;;;;;;;;;;;;;;;;;6301972;28;20045;-80
2023/09/03 03:24:55;;;;;;;;;;;;;;;;;;6303228;28;19923;-80
2023/09/03 03:27:55;;;;;;;;;;;;;;;;;;6306559;28;20397;-80
2023/09/03 03:30:56;;;;;;;;;;;;;;;;;;6298534;28;20561;-71
2023/09/03 03:33:56;;;;;;;;;;;;;;;;;;6315838;28;19919;-71
2023/09/03 03:36:56;;;;;;;;;;;;;;;;;;6304429;28;20382;-71
2023/09/03 03:39:56;;;;;;;;;;;;;;;;;;6300994;28;19916;-71
2023/09/03 03:42:56;;;;;;;;;;;;;;;;;;6304253;28;20403;-71
2023/09/03 03:45:56;;;;;;;;;;;;;;;;;;6314708;28;20371;-71
2023/09/03 03:48:56;;;;;;;;;;;;;;;;;;6301989;28;20394;-71
2023/09/03 03:51:57;;;;;;;;;;;;;;;;;;6304054;28;19920;-71
2023/09/03 03:54:57;;;;;;;;;;;;;;;;;;6301773;28;19923;-70
2023/09/03 03:57:57;;;;;;;;;;;;;;;;;;6299958;28;19912;-71
2023/09/03 04:00:57;;;;;;;;;;;;;;;;;;6295081;28;19912;-71
2023/09/03 04:03:57;;;;;;;;;;;;;;;;;;6299332;28;19978;-71
2023/09/03 04:06:57;;;;;;;;;;;;;;;;;;6299616;28;19954;-71
2023/09/03 04:09:59;;;;;;;;;;;;;;;;;;6301910;28;19982;-72
2023/09/03 04:12:59;;;;;;;;;;;;;;;;;;6296671;28;19930;-71
2023/09/03 04:16:00;;;;;;;;;;;;;;;;;;6292646;28;19912;-71
2023/09/03 04:19:00;;;;;;;;;;;;;;;;;;6305126;28;19920;-71
2023/09/03 04:22:00;;;;;;;;;;;;;;;;;;6314386;28;19920;-71
2023/09/03 04:25:00;;;;;;;;;;;;;;;;;;6301112;28;20034;-71
2023/09/03 04:28:00;;;;;;;;;;;;;;;;;;6300327;28;19963;-71
2023/09/03 04:31:01;;;;;;;;;;;;;;;;;;6297888;28;19916;-71
2023/09/03 04:34:01;;;;;;;;;;;;;;;;;;6303529;28;21543;-71
2023/09/03 04:37:01;;;;;;;;;;;;;;;;;;6298808;28;19938;-70
2023/09/03 04:40:01;;;;;;;;;;;;;;;;;;6295017;28;19958;-71
2023/09/03 04:43:01;;;;;;;;;;;;;;;;;;6324208;28;20425;-80
2023/09/03 04:46:01;;;;;;;;;;;;;;;;;;6309574;28;19920;-79
2023/09/03 04:49:02;;;;;;;;;;;;;;;;;;6319994;28;19916;-82
2023/09/03 04:52:02;;;;;;;;;;;;;;;;;;6317699;28;19925;-84
2023/09/03 04:55:02;;;;;;;;;;;;;;;;;;6302734;28;19916;-81
2023/09/03 04:58:02;;;;;;;;;;;;;;;;;;6300966;28;19916;-80
2023/09/03 05:01:02;;;;;;;;;;;;;;;;;;6303966;28;19916;-81
2023/09/03 05:04:03;;;;;;;;;;;;;;;;;;6297769;28;20461;-81
2023/09/03 05:07:04;;;;;;;;;;;;;;;;;;6299613;28;19919;-80
2023/09/03 05:10:05;;;;;;;;;;;;;;;;;;6305717;28;19971;-81
2023/09/03 05:13:05;;;;;;;;;;;;;;;;;;6306732;28;19913;-81
2023/09/03 05:16:05;;;;;;;;;;;;;;;;;;6310155;28;19912;-80
2023/09/03 05:19:06;;;;;;;;;;;;;;;;;;6304732;28;19912;-83
2023/09/03 05:22:06;;;;;;;;;;;;;;;;;;6306399;28;19919;-82
2023/09/03 05:25:06;;;;;;;;;;;;;;;;;;6317762;28;20003;-82
2023/09/03 05:28:06;;;;;;;;;;;;;;;;;;6305134;28;19912;-81
2023/09/03 05:31:07;;;;;;;;;;;;;;;;;;6295836;28;20008;-80
2023/09/03 05:34:07;;;;;;;;;;;;;;;;;;6304233;28;19999;-81
2023/09/03 05:37:07;;;;;;;;;;;;;;;;;;6317370;28;19979;-80
2023/09/03 05:40:07;;;;;;;;;;;;;;;;;;6304149;28;19918;-80
2023/09/03 05:43:08;;;;;;;;;;;;;;;;;;6300709;28;19928;-80
2023/09/03 05:46:08;;;;;;;;;;;;;;;;;;6294870;28;19978;-80
2023/09/03 05:49:08;;;;;;;;;;;;;;;;;;6300412;28;19924;-80
2023/09/03 05:52:08;;;;;;;;;;;;;;;;;;6302563;28;19920;-78
2023/09/03 05:55:08;;;;;;;;;;;;;;;;;;6297632;28;20123;-78
2023/09/03 05:58:09;;;;;;;;;;;;;;;;;;6300067;28;19952;-78
2023/09/03 06:01:09;;;;;;;;;;;;;;;;;;6304346;28;20024;-78
2023/09/03 06:04:14;;;;;;;;;;;;;;;;;;6305239;28;19963;-80
2023/09/03 06:07:14;;;;;;;;;;;;;;;;;;6322293;28;19923;-81
2023/09/03 06:10:14;;;;;;;;;;;;;;;;;;6306524;28;19916;-80
2023/09/03 06:13:14;;;;;;;;;;;;;;;;;;6307138;28;19928;-80
2023/09/03 06:16:14;;;;;;;;;;;;;;;;;;6308546;28;19912;-80
2023/09/03 06:19:14;;;;;;;;;;;;;;;;;;6302747;28;19999;-81
2023/09/03 06:22:16;;;;;;;;;;;;;;;;;;6303860;28;20258;-81
2023/09/03 06:25:17;;;;;;;;;;;;;;;;;;6317747;28;20251;-75
2023/09/03 06:28:17;;;;;;;;;;;;;;;;;;6305299;28;19920;-75
2023/09/03 06:31:17;;;;;;;;;;;;;;;;;;6302486;28;19912;-74
2023/09/03 06:34:20;;;;;;;;;;;;;;;;;;6301991;28;19923;-75
2023/09/03 06:37:20;;;;;;;;;;;;;;;;;;6300225;28;19913;-76
2023/09/03 06:40:21;;;;;;;;;;;;;;;;;;6306089;28;20228;-74
2023/09/03 06:43:21;;;;;;;;;;;;;;;;;;6303215;28;20011;-75
2023/09/03 06:46:21;;;;;;;;;;;;;;;;;;6311830;28;19916;-76
2023/09/03 06:49:21;;;;;;;;;;;;;;;;;;6326138;28;19943;-75
2023/09/03 06:52:23;;;;;;;;;;;;;;;;;;6316268;28;20015;-75
2023/09/03 06:55:23;;;;;;;;;;;;;;;;;;6351168;28;19924;-75
2023/09/03 06:58:23;;;;;;;;;;;;;;;;;;6314135;28;20305;-74
2023/09/03 07:01:25;;;;;;;;;;;;;;;;;;6309610;28;20428;-75
2023/09/03 07:04:25;;;;;;;;;;;;;;;;;;6309131;28;19923;-75
2023/09/03 07:07:25;;;;;;;;;;;;;;;;;;6308738;28;19916;-75
2023/09/03 07:10:25;;;;;;;;;;;;;;;;;;6306773;28;20022;-75
2023/09/03 07:13:25;;;;;;;;;;;;;;;;;;6313889;28;19923;-75
2023/09/03 07:16:25;;;;;;;;;;;;;;;;;;6319034;28;19927;-73
2023/09/03 07:19:25;;;;;;;;;;;;;;;;;;6298240;28;19941;-73
2023/09/03 07:22:25;;;;;;;;;;;;;;;;;;6315503;28;19912;-73
2023/09/03 07:25:25;;;;;;;;;;;;;;;;;;6322416;28;20290;-73
2023/09/03 07:28:25;;;;;;;;;;;;;;;;;;6301617;28;20035;-73
2023/09/03 07:31:26;;;;;;;;;;;;;;;;;;6313185;28;19948;-74
2023/09/03 07:34:26;;;;;;;;;;;;;;;;;;6324724;27;20298;-74
2023/09/03 07:37:26;;;;;;;;;;;;;;;;;;6319840;28;20331;-75
2023/09/03 07:40:28;;;;;;;;;;;;;;;;;;6308394;28;20400;-75
2023/09/03 07:43:29;;;;;;;;;;;;;;;;;;6323768;28;19948;-76
2023/09/03 07:46:29;;;;;;;;;;;;;;;;;;6314512;28;20319;-75
2023/09/03 07:49:29;;;;;;;;;;;;;;;;;;6321477;28;19928;-76
2023/09/03 07:52:29;;;;;;;;;;;;;;;;;;6324178;28;19920;-75
2023/09/03 07:55:30;;;;;;;;;;;;;;;;;;6326566;28;19923;-75
2023/09/03 07:58:30;;;;;;;;;;;;;;;;;;6308806;28;20023;-76
2023/09/03 08:01:31;;;;;;;;;;;;;;;;;;6313649;28;19995;-74
2023/09/03 08:04:31;;;;;;;;;;;;;;;;;;6336477;28;20058;-75
2023/09/03 08:07:31;;;;;;;;;;;;;;;;;;6317916;28;20012;-75
2023/09/03 08:10:31;;;;;;;;;;;;;;;;;;6329604;28;19961;-75
2023/09/03 08:13:33;;;;;;;;;;;;;;;;;;6316133;28;19912;-74
2023/09/03 08:16:33;;;;;;;;;;;;;;;;;;6302358;28;20353;-74
2023/09/03 08:19:34;;;;;;;;;;;;;;;;;;6313030;28;19959;-74
2023/09/03 08:22:34;;;;;;;;;;;;;;;;;;6304983;28;20371;-75
2023/09/03 08:25:35;;;;;;;;;;;;;;;;;;6327106;28;19938;-75
2023/09/03 08:28:35;;;;;;;;;;;;;;;;;;6328721;28;19985;-76
2023/09/03 08:31:35;;;;;;;;;;;;;;;;;;6316218;28;19912;-76
2023/09/03 08:34:35;;;;;;;;;;;;;;;;;;6330263;28;20389;-76
2023/09/03 08:37:36;;;;;;;;;;;;;;;;;;6314967;28;19920;-76
2023/09/03 08:40:36;;;;;;;;;;;;;;;;;;6333568;28;19913;-76
2023/09/03 08:43:36;;;;;;;;;;;;;;;;;;6336673;28;19927;-76
2023/09/03 08:46:36;;;;;;;;;;;;;;;;;;6319305;28;20282;-76
2023/09/03 08:49:37;;;;;;;;;;;;;;;;;;6314884;28;19916;-78
2023/09/03 08:52:38;;;;;;;;;;;;;;;;;;6327587;28;19921;-76
2023/09/03 08:55:39;;;;;;;;;;;;;;;;;;6320269;28;19919;-77
2023/09/03 08:58:39;;;;;;;;;;;;;;;;;;6322938;28;19964;-76
2023/09/03 09:01:39;;;;;;;;;;;;;;;;;;6332637;28;19916;-76
2023/09/03 09:04:40;;;;;;;;;;;;;;;;;;6331513;28;19919;-77
2023/09/03 09:07:40;;;;;;;;;;;;;;;;;;6315170;28;19912;-77
2023/09/03 09:10:40;;;;;;;;;;;;;;;;;;6316373;28;19914;-78
2023/09/03 09:13:40;;;;;;;;;;;;;;;;;;6319811;28;19962;-78
2023/09/03 09:16:40;;;;;;;;;;;;;;;;;;6335167;28;19969;-78
2023/09/03 09:19:40;;;;;;;;;;;;;;;;;;6325033;28;19920;-79
2023/09/03 09:22:40;;;;;;;;;;;;;;;;;;6308966;28;19943;-78
2023/09/03 09:25:40;;;;;;;;;;;;;;;;;;6310100;28;19923;-81
2023/09/03 09:28:41;;;;;;;;;;;;;;;;;;6308947;28;19920;-83
2023/09/03 09:31:41;;;;;;;;;;;;;;;;;;6308438;28;19941;-84
2023/09/03 09:34:41;;;;;;;;;;;;;;;;;;6324716;28;19920;-85
2023/09/03 09:37:41;;;;;;;;;;;;;;;;;;6305352;28;19943;-85
2023/09/03 09:40:41;;;;;;;;;;;;;;;;;;6319328;28;19916;-86
2023/09/03 09:43:41;;;;;;;;;;;;;;;;;;6323910;28;19958;-85
2023/09/03 09:46:41;;;;;;;;;;;;;;;;;;6325160;28;19912;-84
2023/09/03 09:49:42;;;;;;;;;;;;;;;;;;6326690;28;20027;-87
2023/09/03 09:52:42;;;;;;;;;;;;;;;;;;6317814;28;19924;-86
2023/09/03 09:55:43;;;;;;;;;;;;;;;;;;6319055;28;19918;-86
2023/09/03 09:58:43;;;;;;;;;;;;;;;;;;6310223;28;20011;-87
2023/09/03 10:01:43;;;;;;;;;;;;;;;;;;6318726;28;19934;-87
2023/09/03 10:04:43;;;;;;;;;;;;;;;;;;6325240;28;20303;-87
2023/09/03 10:07:43;;;;;;;;;;;;;;;;;;6328565;28;19919;-88
2023/09/03 10:10:44;;;;;;;;;;;;;;;;;;6319191;28;19920;-76
2023/09/03 10:13:44;;;;;;;;;;;;;;;;;;6308949;28;19917;-76
2023/09/03 10:16:44;;;;;;;;;;;;;;;;;;6313388;28;19922;-89
2023/09/03 10:19:47;;;;;;;;;;;;;;;;;;6315733;28;20320;-88
2023/09/03 10:22:47;;;;;;;;;;;;;;;;;;6344578;28;19973;-76
2023/09/03 10:25:47;;;;;;;;;;;;;;;;;;6337893;28;19919;-76
2023/09/03 10:28:47;;;;;;;;;;;;;;;;;;6309463;28;19986;-77
2023/09/03 10:31:47;;;;;;;;;;;;;;;;;;6319375;28;19966;-78
2023/09/03 10:34:47;;;;;;;;;;;;;;;;;;6328267;28;19912;-79
2023/09/03 10:37:50;;;;;;;;;;;;;;;;;;6327889;28;19916;-77
2023/09/03 10:40:50;;;;;;;;;;;;;;;;;;6338364;28;19915;-78
2023/09/03 10:43:52;;;;;;;;;;;;;;;;;;6339612;28;19930;-79
2023/09/03 10:46:52;;;;;;;;;;;;;;;;;;6318213;28;20302;-78
2023/09/03 10:49:53;;;;;;;;;;;;;;;;;;6324508;28;19916;-78
2023/09/03 10:52:53;;;;;;;;;;;;;;;;;;6349590;28;19942;-77
2023/09/03 10:55:53;;;;;;;;;;;;;;;;;;6347905;28;20313;-78
2023/09/03 10:58:53;;;;;;;;;;;;;;;;;;6340937;28;19924;-77
2023/09/03 11:01:56;;;;;;;;;;;;;;;;;;6322200;28;19945;-77
2023/09/03 11:04:56;;;;;;;;;;;;;;;;;;6333854;28;19928;-78
2023/09/03 11:07:56;;;;;;;;;;;;;;;;;;6327461;28;19912;-77
2023/09/03 11:10:56;;;;;;;;;;;;;;;;;;6335838;28;19999;-77
2023/09/03 11:13:56;;;;;;;;;;;;;;;;;;6342206;28;20064;-76
2023/09/03 11:16:58;;;;;;;;;;;;;;;;;;5972605;28;9999842;-77
2023/09/03 11:19:58;;;;;;;;;;;;;;;;;;6319297;28;19959;-77
2023/09/03 11:22:58;;;;;;;;;;;;;;;;;;6327602;28;20038;-79
2023/09/03 11:25:59;;;;;;;;;;;;;;;;;;6323505;28;19942;-79
2023/09/03 11:28:59;;;;;;;;;;;;;;;;;;6334868;28;19923;-77
2023/09/03 11:31:59;;;;;;;;;;;;;;;;;;6338728;28;19938;-77
2023/09/03 11:35:00;;;;;;;;;;;;;;;;;;6308724;28;19935;-76
2023/09/03 11:38:00;;;;;;;;;;;;;;;;;;6317533;28;20021;-77
2023/09/03 11:41:00;;;;;;;;;;;;;;;;;;6317722;28;19923;-78
2023/09/03 11:44:00;;;;;;;;;;;;;;;;;;6325359;28;19928;-78
2023/09/03 11:47:01;;;;;;;;;;;;;;;;;;6312684;28;20121;-78
2023/09/03 11:50:12;;;;;;;;;;;;;;;;;;;;;
2023/09/03 11:53:09;;;;;;;;;;;;;;;;;;6292484;28;20004;-95
2023/09/03 11:56:09;;;;;;;;;;;;;;;;;;6315203;28;19917;-96
2023/09/03 11:59:09;;;;;;;;;;;;;;;;;;6332706;22;19995;-88
2023/09/03 12:02:09;;;;;;;;;;;;;;;;;;6286025;28;19924;-90
2023/09/03 12:05:09;;;;;;;;;;;;;;;;;;6306169;28;19985;-91
2023/09/03 12:08:09;;;;;;;;;;;;;;;;;;6293836;28;19912;-90
2023/09/03 12:11:09;;;;;;;;;;;;;;;;;;6287644;28;19927;-88
2023/09/03 12:14:10;;;;;;;;;;;;;;;;;;6312405;28;19972;-87
2023/09/03 12:17:10;;;;;;;;;;;;;;;;;;6293449;28;19921;-88
2023/09/03 12:20:11;;;;;;;;;;;;;;;;;;6297689;28;19966;-89
2023/09/03 12:23:11;;;;;;;;;;;;;;;;;;6309672;28;19909;-87
2023/09/03 12:26:11;;;;;;;;;;;;;;;;;;6316736;28;19921;-87
2023/09/03 12:29:12;;;;;;;;;;;;;;;;;;6292305;28;19917;-74
2023/09/03 12:32:12;;;;;;;;;;;;;;;;;;6260837;28;19917;-75
2023/09/03 12:35:13;;;;;;;;;;;;;;;;;;6262016;28;21309;-75
2023/09/03 12:38:13;;;;;;;;;;;;;;;;;;6274039;28;19960;-74
2023/09/03 12:41:13;;;;;;;;;;;;;;;;;;6270177;28;19982;-74
2023/09/03 12:44:15;;;;;;;;;;;;;;;;;;6269378;28;20462;-75
2023/09/03 12:47:17;;;;;;;;;;;;;;;;;;6291691;28;19916;-75
2023/09/03 12:50:17;;;;;;;;;;;;;;;;;;6275554;28;19924;-77
2023/09/03 12:53:17;;;;;;;;;;;;;;;;;;6255006;28;19916;-76
2023/09/03 12:56:17;;;;;;;;;;;;;;;;;;6274915;28;19920;-75
2023/09/03 12:59:17;;;;;;;;;;;;;;;;;;6289451;28;19964;-76
2023/09/03 13:02:18;;;;;;;;;;;;;;;;;;6288291;28;19948;-75
2023/09/03 13:05:18;;;;;;;;;;;;;;;;;;6296249;28;19917;-75
2023/09/03 13:08:19;;;;;;;;;;;;;;;;;;6282919;28;19940;-76
2023/09/03 13:11:19;;;;;;;;;;;;;;;;;;6266952;28;19961;-76
2023/09/03 13:14:19;;;;;;;;;;;;;;;;;;6274987;28;19916;-76
2023/09/03 13:17:19;;;;;;;;;;;;;;;;;;6298455;28;19912;-76
2023/09/03 13:20:20;;;;;;;;;;;;;;;;;;6289991;28;19913;-76
2023/09/03 13:23:20;;;;;;;;;;;;;;;;;;6269281;28;19925;-76
2023/09/03 13:26:20;;;;;;;;;;;;;;;;;;6266110;28;19921;-77
2023/09/03 13:29:21;;;;;;;;;;;;;;;;;;6266631;28;20241;-77
2023/09/03 13:32:21;;;;;;;;;;;;;;;;;;6276000;28;19917;-76
2023/09/03 13:35:22;;;;;;;;;;;;;;;;;;6268473;28;20401;-75
2023/09/03 13:38:22;;;;;;;;;;;;;;;;;;6273275;28;19947;-77
2023/09/03 13:41:23;;;;;;;;;;;;;;;;;;6269306;28;19913;-77
2023/09/03 13:44:23;;;;;;;;;;;;;;;;;;6260967;28;20141;-80
2023/09/03 13:47:23;;;;;;;;;;;;;;;;;;6296034;28;20385;-78
2023/09/03 13:50:23;;;;;;;;;;;;;;;;;;6270857;28;19972;-79
2023/09/03 13:53:24;;;;;;;;;;;;;;;;;;6285306;28;19924;-80
2023/09/03 13:56:24;;;;;;;;;;;;;;;;;;6263141;28;19952;-80
2023/09/03 13:59:24;;;;;;;;;;;;;;;;;;6270511;28;19928;-78
2023/09/03 14:02:28;;;;;;;;;;;;;;;;;;6265121;28;20050;-77
2023/09/03 14:05:28;;;;;;;;;;;;;;;;;;6276658;28;19922;-77
2023/09/03 14:08:28;;;;;;;;;;;;;;;;;;6275207;28;19921;-77
2023/09/03 14:11:29;;;;;;;;;;;;;;;;;;5911538;28;9999638;-77
2023/09/03 14:14:29;;;;;;;;;;;;;;;;;;6252466;28;19928;-77
2023/09/03 14:17:29;;;;;;;;;;;;;;;;;;6257572;28;20340;-77
2023/09/03 14:20:29;;;;;;;;;;;;;;;;;;6270009;28;19916;-76
2023/09/03 14:23:30;;;;;;;;;;;;;;;;;;6282175;28;19967;-76
2023/09/03 14:26:30;;;;;;;;;;;;;;;;;;6270759;28;20027;-77
2023/09/03 14:29:31;;;;;;;;;;;;;;;;;;6269708;28;20066;-76
2023/09/03 14:32:31;;;;;;;;;;;;;;;;;;6285255;28;19975;-76
2023/09/03 14:35:32;;;;;;;;;;;;;;;;;;6276719;28;19917;-76
2023/09/03 14:38:32;;;;;;;;;;;;;;;;;;6266144;28;20307;-76
2023/09/03 14:41:33;;;;;;;;;;;;;;;;;;6265925;28;19922;-76
2023/09/03 14:44:33;;;;;;;;;;;;;;;;;;6269447;28;20399;-76
2023/09/03 14:47:35;;;;;;;;;;;;;;;;;;6257729;28;19971;-75
2023/09/03 14:50:35;;;;;;;;;;;;;;;;;;6266945;28;19925;-76
2023/09/03 14:53:35;;;;;;;;;;;;;;;;;;6254683;28;19917;-76
2023/09/03 14:56:35;;;;;;;;;;;;;;;;;;6257397;28;19924;-75
2023/09/03 14:59:35;;;;;;;;;;;;;;;;;;6257534;28;20043;-76
2023/09/03 15:02:37;;;;;;;;;;;;;;;;;;6253612;28;19939;-75
2023/09/03 15:05:37;;;;;;;;;;;;;;;;;;6253624;28;20376;-76
2023/09/03 15:08:37;;;;;;;;;;;;;;;;;;6257341;28;19991;-76
2023/09/03 15:11:38;;;;;;;;;;;;;;;;;;6254551;28;19999;-78
2023/09/03 15:14:38;;;;;;;;;;;;;;;;;;6251649;28;19924;-75
2023/09/03 15:17:38;;;;;;;;;;;;;;;;;;6258455;28;20416;-75
2023/09/03 15:20:38;;;;;;;;;;;;;;;;;;6256721;28;19912;-76
2023/09/03 15:23:39;;;;;;;;;;;;;;;;;;6274596;28;19928;-75
2023/09/03 15:26:39;;;;;;;;;;;;;;;;;;6275021;28;20279;-76
2023/09/03 15:29:41;;;;;;;;;;;;;;;;;;6287752;28;19963;-75
2023/09/03 15:32:41;;;;;;;;;;;;;;;;;;6264783;28;19916;-74
2023/09/03 15:35:41;;;;;;;;;;;;;;;;;;6286809;28;19939;-76
2023/09/03 15:38:41;;;;;;;;;;;;;;;;;;6257363;28;20382;-75
2023/09/03 15:41:42;;;;;;;;;;;;;;;;;;6257028;28;20387;-75
2023/09/03 15:44:42;;;;;;;;;;;;;;;;;;6273795;28;19928;-76
2023/09/03 15:47:42;;;;;;;;;;;;;;;;;;6269214;28;19917;-76
2023/09/03 15:50:42;;;;;;;;;;;;;;;;;;6255362;28;19924;-76
2023/09/03 15:53:43;;;;;;;;;;;;;;;;;;6255385;28;19932;-75
2023/09/03 15:56:43;;;;;;;;;;;;;;;;;;6270098;28;20640;-77
2023/09/03 15:59:43;;;;;;;;;;;;;;;;;;6228121;28;20015;-75
2023/09/03 16:02:43;;;;;;;;;;;;;;;;;;6239844;28;19917;-76
2023/09/03 16:05:44;;;;;;;;;;;;;;;;;;6255260;28;19913;-75
2023/09/03 16:08:44;;;;;;;;;;;;;;;;;;6262983;28;19920;-75
2023/09/03 16:11:44;;;;;;;;;;;;;;;;;;6275156;28;19913;-77
2023/09/03 16:14:44;;;;;;;;;;;;;;;;;;6255541;28;19913;-78
2023/09/03 16:17:44;;;;;;;;;;;;;;;;;;6256831;28;19914;-76
2023/09/03 16:20:47;;;;;;;;;;;;;;;;;;6275948;28;19920;-76
2023/09/03 16:23:47;;;;;;;;;;;;;;;;;;6247844;28;19948;-77
2023/09/03 16:26:47;;;;;;;;;;;;;;;;;;6254431;28;19910;-74
2023/09/03 16:29:48;;;;;;;;;;;;;;;;;;6267452;28;19924;-75
2023/09/03 16:32:48;;;;;;;;;;;;;;;;;;6263997;28;19917;-75
2023/09/03 16:35:48;;;;;;;;;;;;;;;;;;6251276;28;19917;-74
2023/09/03 16:38:48;;;;;;;;;;;;;;;;;;6240199;28;20459;-75
2023/09/03 16:41:48;;;;;;;;;;;;;;;;;;6250102;28;19920;-75
2023/09/03 16:44:49;;;;;;;;;;;;;;;;;;6245990;28;19921;-76
2023/09/03 16:47:49;;;;;;;;;;;;;;;;;;6238059;28;19988;-75
2023/09/03 16:50:50;;;;;;;;;;;;;;;;;;6238825;28;19963;-75
2023/09/03 16:53:50;;;;;;;;;;;;;;;;;;6248271;28;19922;-73
2023/09/03 16:56:50;;;;;;;;;;;;;;;;;;6256187;28;20008;-75
2023/09/03 16:59:50;;;;;;;;;;;;;;;;;;6281724;28;20403;-74
2023/09/03 17:02:52;;;;;;;;;;;;;;;;;;6274449;28;19916;-76
2023/09/03 17:05:52;;;;;;;;;;;;;;;;;;6264834;28;19923;-77
2023/09/03 17:08:52;;;;;;;;;;;;;;;;;;6260146;28;19956;-74
2023/09/03 17:11:53;;;;;;;;;;;;;;;;;;6271014;28;19913;-74
2023/09/03 17:14:53;;;;;;;;;;;;;;;;;;6269617;28;19917;-76
2023/09/03 17:17:53;;;;;;;;;;;;;;;;;;6253635;28;20378;-75
2023/09/03 17:20:53;;;;;;;;;;;;;;;;;;6257578;28;19917;-75
2023/09/03 17:23:54;;;;;;;;;;;;;;;;;;6260116;28;19982;-74
2023/09/03 17:26:57;;;;;;;;;;;;;;;;;;6280438;28;19923;-76
2023/09/03 17:29:57;;;;;;;;;;;;;;;;;;6304696;28;19929;-75
2023/09/03 17:32:57;;;;;;;;;;;;;;;;;;6260776;28;19924;-72
2023/09/03 17:35:57;;;;;;;;;;;;;;;;;;6267767;28;19964;-71
2023/09/03 17:38:57;;;;;;;;;;;;;;;;;;6269195;28;19917;-70
2023/09/03 17:41:57;;;;;;;;;;;;;;;;;;6249635;28;20328;-70
2023/09/03 17:44:59;;;;;;;;;;;;;;;;;;6252902;28;20441;-72
2023/09/03 17:47:59;;;;;;;;;;;;;;;;;;6266202;28;19971;-72
2023/09/03 17:51:00;;;;;;;;;;;;;;;;;;6260001;28;19917;-73
2023/09/03 17:54:00;;;;;;;;;;;;;;;;;;6273714;28;20391;-73
2023/09/03 17:57:03;;;;;;;;;;;;;;;;;;6256176;28;19928;-72
2023/09/03 18:00:04;;;;;;;;;;;;;;;;;;6258323;28;20810;-72
2023/09/03 18:03:04;;;;;;;;;;;;;;;;;;6272776;28;19916;-73
2023/09/03 18:06:04;;;;;;;;;;;;;;;;;;6254197;28;20019;-75
2023/09/03 18:09:05;;;;;;;;;;;;;;;;;;6256000;28;19920;-75
2023/09/03 18:12:05;;;;;;;;;;;;;;;;;;6254048;28;19917;-74
2023/09/03 18:15:05;;;;;;;;;;;;;;;;;;6256599;28;20246;-74
2023/09/03 18:18:05;;;;;;;;;;;;;;;;;;6260723;28;19943;-75
2023/09/03 18:21:05;;;;;;;;;;;;;;;;;;6252810;28;19917;-76
2023/09/03 18:24:05;;;;;;;;;;;;;;;;;;6279343;28;19947;-76
2023/09/03 18:27:06;;;;;;;;;;;;;;;;;;6260917;28;19971;-76
2023/09/03 18:30:06;;;;;;;;;;;;;;;;;;6268307;28;19927;-74
2023/09/03 18:33:07;;;;;;;;;;;;;;;;;;6277194;28;19963;-75
2023/09/03 18:36:08;;;;;;;;;;;;;;;;;;6262274;28;19913;-75
2023/09/03 18:39:11;;;;;;;;;;;;;;;;;;6258962;28;19921;-76
2023/09/03 18:42:11;;;;;;;;;;;;;;;;;;6258874;28;20399;-75
2023/09/03 18:45:12;;;;;;;;;;;;;;;;;;6259608;28;19972;-75
2023/09/03 18:48:12;;;;;;;;;;;;;;;;;;6271590;28;19921;-75
2023/09/03 18:51:12;;;;;;;;;;;;;;;;;;6257584;28;19928;-75
2023/09/03 18:54:12;;;;;;;;;;;;;;;;;;6255446;28;19952;-76
2023/09/03 18:57:13;;;;;;;;;;;;;;;;;;6260289;28;20062;-76
2023/09/03 19:00:13;;;;;;;;;;;;;;;;;;6254832;28;20070;-76
2023/09/03 19:03:14;;;;;;;;;;;;;;;;;;6260905;28;20417;-76
2023/09/03 19:06:14;;;;;;;;;;;;;;;;;;6255648;28;19924;-75
2023/09/03 19:09:15;;;;;;;;;;;;;;;;;;6255905;28;19998;-75
2023/09/03 19:12:17;;;;;;;;;;;;;;;;;;6256190;28;19930;-75
2023/09/03 19:15:17;;;;;;;;;;;;;;;;;;6257870;28;19928;-76
2023/09/03 19:18:22;;;;;;;;;;;;;;;;;;6258871;28;20016;-76
2023/09/03 19:21:22;;;;;;;;;;;;;;;;;;6257157;28;19913;-76
2023/09/03 19:24:25;;;;;;;;;;;;;;;;;;6264411;28;20375;-74
2023/09/03 19:27:25;;;;;;;;;;;;;;;;;;6259324;28;20000;-76
2023/09/03 19:30:25;;;;;;;;;;;;;;;;;;6265541;28;19939;-76
2023/09/03 19:33:26;;;;;;;;;;;;;;;;;;6290412;28;19985;-76
2023/09/03 19:36:26;;;;;;;;;;;;;;;;;;6291679;28;20444;-77
2023/09/03 19:39:26;;;;;;;;;;;;;;;;;;6268533;28;19917;-76
2023/09/03 19:42:26;;;;;;;;;;;;;;;;;;6277625;28;19917;-76
2023/09/03 19:45:26;;;;;;;;;;;;;;;;;;6265732;28;19921;-75
2023/09/03 19:48:30;;;;;;;;;;;;;;;;;;6264179;28;19927;-76
2023/09/03 19:51:30;;;;;;;;;;;;;;;;;;6279103;28;20375;-76
2023/09/03 19:54:30;;;;;;;;;;;;;;;;;;6264266;28;19928;-76
2023/09/03 19:57:30;;;;;;;;;;;;;;;;;;6256407;28;19925;-76
2023/09/03 20:00:31;;;;;;;;;;;;;;;;;;6260110;28;19953;-76
2023/09/03 20:03:31;;;;;;;;;;;;;;;;;;6289672;28;19947;-78
2023/09/03 20:06:32;;;;;;;;;;;;;;;;;;6258201;28;20047;-76
2023/09/03 20:09:33;;;;;;;;;;;;;;;;;;6256908;28;20006;-79
2023/09/03 20:12:34;;;;;;;;;;;;;;;;;;6274169;28;19929;-78
2023/09/03 20:15:37;;;;;;;;;;;;;;;;;;6250429;28;19931;-78
2023/09/03 20:18:37;;;;;;;;;;;;;;;;;;6259417;28;20449;-76
2023/09/03 20:21:38;;;;;;;;;;;;;;;;;;6264968;28;19913;-76
2023/09/03 20:24:38;;;;;;;;;;;;;;;;;;6286123;28;20031;-77
2023/09/03 20:27:39;;;;;;;;;;;;;;;;;;6262363;28;19947;-77
2023/09/03 20:30:41;;;;;;;;;;;;;;;;;;6255875;28;19928;-77